sensor_id;sensor_type;location;lat;lon;timestamp;temperature;humidity
13264;DHT22;6700;51.988;7.646;2022-11-20T14:03:58;3.80;99.90
13264;DHT22;6700;51.988;7.646;2022-11-20T14:06:42;3.60;99.90
13264;DHT22;6700;51.988;7.646;2022-11-20T14:09:30;3.40;99.90
13264;DHT22;6700;51.988;7.646;2022-11-20T14:11:58;3.30;99.90
13264;DHT22;6700;51.988;7.646;2022-11-20T14:14:27;3.30;99.90
13264;DHT22;6700;51.988;7.646;2022-11-20T14:17:22;3.40;99.90
13264;DHT22;6700;51.988;7.646;2022-11-20T14:19:51;3.40;99.90
13264;DHT22;6700;51.988;7.646;2022-11-20T14:22:23;3.20;99.90
13264;DHT22;6700;51.988;7.646;2022-11-20T14:27:36;3.30;99.90
13264;DHT22;6700;51.988;7.646;2022-11-20T14:30:04;3.40;99.90
13264;DHT22;6700;51.988;7.646;2022-11-20T14:32:32;3.30;99.90
13264;DHT22;6700;51.988;7.646;2022-11-20T14:35:09;3.20;99.90
13264;DHT22;6700;51.988;7.646;2022-11-20T14:37:40;3.30;99.90
13264;DHT22;6700;51.988;7.646;2022-11-20T14:40:30;3.30;99.90
13264;DHT22;6700;51.988;7.646;2022-11-20T14:42:58;3.30;99.90
13264;DHT22;6700;51.988;7.646;2022-11-20T14:45:26;3.20;99.90
13264;DHT22;6700;51.988;7.646;2022-11-20T14:47:55;3.20;99.90
13264;DHT22;6700;51.988;7.646;2022-11-20T14:50:24;3.30;99.90
13264;DHT22;6700;51.988;7.646;2022-11-20T14:52:56;3.30;99.90
13264;DHT22;6700;51.988;7.646;2022-11-20T14:55:36;3.30;99.90
13264;DHT22;6700;51.988;7.646;2022-11-20T14:58:24;3.30;99.90
13264;DHT22;6700;51.988;7.646;2022-11-20T15:01:05;3.30;99.90
13264;DHT22;6700;51.988;7.646;2022-11-20T15:03:39;3.20;99.90
13264;DHT22;6700;51.988;7.646;2022-11-20T15:06:09;3.20;99.90
13264;DHT22;6700;51.988;7.646;2022-11-20T15:08:37;3.20;99.90
13264;DHT22;6700;51.988;7.646;2022-11-20T15:11:20;3.30;99.90
13264;DHT22;6700;51.988;7.646;2022-11-20T15:13:47;3.20;99.90
13264;DHT22;6700;51.988;7.646;2022-11-20T15:16:21;3.20;99.90
13264;DHT22;6700;51.988;7.646;2022-11-20T15:18:50;3.10;99.90
13264;DHT22;6700;51.988;7.646;2022-11-20T15:21:19;3.20;99.90
13264;DHT22;6700;51.988;7.646;2022-11-20T15:23:47;3.10;99.90
13264;DHT22;6700;51.988;7.646;2022-11-20T15:26:21;3.10;99.90
13264;DHT22;6700;51.988;7.646;2022-11-20T15:28:49;3.00;99.90
13264;DHT22;6700;51.988;7.646;2022-11-20T15:31:19;3.20;99.90
13264;DHT22;6700;51.988;7.646;2022-11-20T15:33:47;3.10;99.90
13264;DHT22;6700;51.988;7.646;2022-11-20T15:36:14;3.20;99.90
13264;DHT22;6700;51.988;7.646;2022-11-20T15:38:41;3.10;99.90
13264;DHT22;6700;51.988;7.646;2022-11-20T15:41:08;3.00;99.90
13264;DHT22;6700;51.988;7.646;2022-11-20T15:43:35;3.10;99.90
13264;DHT22;6700;51.988;7.646;2022-11-20T15:46:13;3.10;99.90
13264;DHT22;6700;51.988;7.646;2022-11-20T15:48:44;3.10;99.90
13264;DHT22;6700;51.988;7.646;2022-11-20T15:51:21;3.10;99.90
13264;DHT22;6700;51.988;7.646;2022-11-20T15:53:50;3.00;99.90
13264;DHT22;6700;51.988;7.646;2022-11-20T15:56:17;3.00;99.90
13264;DHT22;6700;51.988;7.646;2022-11-20T15:58:43;3.10;99.90
13264;DHT22;6700;51.988;7.646;2022-11-20T16:01:12;3.10;99.90
13264;DHT22;6700;51.988;7.646;2022-11-20T16:03:40;3.00;99.90
13264;DHT22;6700;51.988;7.646;2022-11-20T16:06:07;3.00;99.90
13264;DHT22;6700;51.988;7.646;2022-11-20T16:08:34;2.90;99.90
13264;DHT22;6700;51.988;7.646;2022-11-20T16:11:01;3.00;99.90
13264;DHT22;6700;51.988;7.646;2022-11-20T16:13:28;2.90;99.90
13264;DHT22;6700;51.988;7.646;2022-11-20T16:16:23;3.00;99.90
13264;DHT22;6700;51.988;7.646;2022-11-20T16:18:52;3.00;99.90
13264;DHT22;6700;51.988;7.646;2022-11-20T16:21:19;3.00;99.90
13264;DHT22;6700;51.988;7.646;2022-11-20T16:23:46;3.00;99.90
13264;DHT22;6700;51.988;7.646;2022-11-20T16:26:17;2.90;99.90
13264;DHT22;6700;51.988;7.646;2022-11-20T16:28:44;2.90;99.90
13264;DHT22;6700;51.988;7.646;2022-11-20T16:31:16;2.80;99.90
13264;DHT22;6700;51.988;7.646;2022-11-20T16:33:49;2.90;99.90
13264;DHT22;6700;51.988;7.646;2022-11-20T16:36:16;2.80;99.90
13264;DHT22;6700;51.988;7.646;2022-11-20T16:38:43;2.90;99.90
13264;DHT22;6700;51.988;7.646;2022-11-20T16:41:10;2.90;99.90
13264;DHT22;6700;51.988;7.646;2022-11-20T16:43:51;3.00;99.90
13264;DHT22;6700;51.988;7.646;2022-11-20T16:46:20;3.00;99.90
13264;DHT22;6700;51.988;7.646;2022-11-20T16:48:58;3.00;99.90
13264;DHT22;6700;51.988;7.646;2022-11-20T16:51:25;3.00;99.90
13264;DHT22;6700;51.988;7.646;2022-11-20T16:53:53;2.90;99.90
13264;DHT22;6700;51.988;7.646;2022-11-20T16:56:23;2.90;99.90
13264;DHT22;6700;51.988;7.646;2022-11-20T16:58:52;3.00;99.90
13264;DHT22;6700;51.988;7.646;2022-11-20T17:01:20;2.90;99.90
13264;DHT22;6700;51.988;7.646;2022-11-20T17:06:22;2.80;99.90
13264;DHT22;6700;51.988;7.646;2022-11-20T17:08:49;2.90;99.90
13264;DHT22;6700;51.988;7.646;2022-11-20T17:11:18;2.80;99.90
13264;DHT22;6700;51.988;7.646;2022-11-20T17:13:45;2.80;99.90
13264;DHT22;6700;51.988;7.646;2022-11-20T17:16:15;2.80;99.90
13264;DHT22;6700;51.988;7.646;2022-11-20T17:18:42;2.70;99.90
13264;DHT22;6700;51.988;7.646;2022-11-20T17:21:10;2.50;99.90
13264;DHT22;6700;51.988;7.646;2022-11-20T17:23:40;2.60;99.90
13264;DHT22;6700;51.988;7.646;2022-11-20T17:26:18;2.60;99.90
13264;DHT22;6700;51.988;7.646;2022-11-20T17:28:58;2.60;99.90
13264;DHT22;6700;51.988;7.646;2022-11-20T17:31:27;2.50;99.90
13264;DHT22;6700;51.988;7.646;2022-11-20T17:33:54;2.40;99.90
13264;DHT22;6700;51.988;7.646;2022-11-20T17:36:21;2.50;99.90
13264;DHT22;6700;51.988;7.646;2022-11-20T17:38:50;2.40;99.90
13264;DHT22;6700;51.988;7.646;2022-11-20T17:41:20;2.50;99.90
13264;DHT22;6700;51.988;7.646;2022-11-20T17:43:48;2.30;99.90
13264;DHT22;6700;51.988;7.646;2022-11-20T17:46:20;2.30;99.90
13264;DHT22;6700;51.988;7.646;2022-11-20T17:48:50;2.30;99.90
13264;DHT22;6700;51.988;7.646;2022-11-20T17:51:25;2.20;99.90
13264;DHT22;6700;51.988;7.646;2022-11-20T17:53:55;2.20;99.90
13264;DHT22;6700;51.988;7.646;2022-11-20T17:56:23;2.10;99.90
13264;DHT22;6700;51.988;7.646;2022-11-20T17:59:11;2.40;99.90
13264;DHT22;6700;51.988;7.646;2022-11-20T18:01:39;2.00;99.90
13264;DHT22;6700;51.988;7.646;2022-11-20T18:04:08;2.00;99.90
13264;DHT22;6700;51.988;7.646;2022-11-20T18:06:36;2.10;99.90
13264;DHT22;6700;51.988;7.646;2022-11-20T18:09:03;1.90;99.90
13264;DHT22;6700;51.988;7.646;2022-11-20T18:11:33;1.90;99.90
13264;DHT22;6700;51.988;7.646;2022-11-20T18:14:03;1.90;99.90
13264;DHT22;6700;51.988;7.646;2022-11-20T18:16:55;1.90;99.90
13264;DHT22;6700;51.988;7.646;2022-11-20T18:19:25;1.80;99.90
13264;DHT22;6700;51.988;7.646;2022-11-20T18:21:57;1.80;99.90
13264;DHT22;6700;51.988;7.646;2022-11-20T18:24:26;1.80;99.90
13264;DHT22;6700;51.988;7.646;2022-11-20T18:26:53;1.80;99.90
13264;DHT22;6700;51.988;7.646;2022-11-20T18:29:20;1.70;99.90
13264;DHT22;6700;51.988;7.646;2022-11-20T18:31:47;1.70;99.90
13264;DHT22;6700;51.988;7.646;2022-11-20T18:34:14;1.80;99.90
13264;DHT22;6700;51.988;7.646;2022-11-20T18:36:42;1.80;99.90
13264;DHT22;6700;51.988;7.646;2022-11-20T18:39:10;1.80;99.90
13264;DHT22;6700;51.988;7.646;2022-11-20T18:41:38;1.80;99.90
13264;DHT22;6700;51.988;7.646;2022-11-20T18:44:25;1.70;99.90
13264;DHT22;6700;51.988;7.646;2022-11-20T18:47:13;1.80;99.90
13264;DHT22;6700;51.988;7.646;2022-11-20T18:49:42;1.70;99.90
13264;DHT22;6700;51.988;7.646;2022-11-20T18:52:12;1.70;99.90
13264;DHT22;6700;51.988;7.646;2022-11-20T18:54:39;1.80;99.90
13264;DHT22;6700;51.988;7.646;2022-11-20T18:57:05;1.70;99.90
13264;DHT22;6700;51.988;7.646;2022-11-20T18:59:32;1.70;99.90
13264;DHT22;6700;51.988;7.646;2022-11-20T19:01:59;1.70;99.90
13264;DHT22;6700;51.988;7.646;2022-11-20T19:04:26;1.70;99.90
13264;DHT22;6700;51.988;7.646;2022-11-20T19:06:53;1.70;99.90
13264;DHT22;6700;51.988;7.646;2022-11-20T19:09:22;1.70;99.90
13264;DHT22;6700;51.988;7.646;2022-11-20T19:11:50;1.70;99.90
13264;DHT22;6700;51.988;7.646;2022-11-20T19:14:17;1.60;99.90
13264;DHT22;6700;51.988;7.646;2022-11-20T19:16:43;1.70;99.90
13264;DHT22;6700;51.988;7.646;2022-11-20T19:19:10;1.70;99.90
13264;DHT22;6700;51.988;7.646;2022-11-20T19:21:37;1.70;99.90
13264;DHT22;6700;51.988;7.646;2022-11-20T19:24:04;1.60;99.90
13264;DHT22;6700;51.988;7.646;2022-11-20T19:26:34;1.60;99.90
13264;DHT22;6700;51.988;7.646;2022-11-20T19:29:02;1.60;99.90
13264;DHT22;6700;51.988;7.646;2022-11-20T19:31:29;1.60;99.90
13264;DHT22;6700;51.988;7.646;2022-11-20T19:34:00;1.60;99.90
13264;DHT22;6700;51.988;7.646;2022-11-20T19:36:33;1.60;99.90
13264;DHT22;6700;51.988;7.646;2022-11-20T19:39:01;1.60;99.90
13264;DHT22;6700;51.988;7.646;2022-11-20T19:41:32;1.60;99.90
13264;DHT22;6700;51.988;7.646;2022-11-20T19:44:01;1.60;99.90
13264;DHT22;6700;51.988;7.646;2022-11-20T19:46:30;1.60;99.90
13264;DHT22;6700;51.988;7.646;2022-11-20T19:48:57;1.60;99.90
13264;DHT22;6700;51.988;7.646;2022-11-20T19:51:29;1.60;99.90
13264;DHT22;6700;51.988;7.646;2022-11-20T19:53:57;1.50;99.90
13264;DHT22;6700;51.988;7.646;2022-11-20T19:56:26;1.50;99.90
13264;DHT22;6700;51.988;7.646;2022-11-20T19:58:54;1.60;99.90
13264;DHT22;6700;51.988;7.646;2022-11-20T20:01:23;1.50;99.90
13264;DHT22;6700;51.988;7.646;2022-11-20T20:03:51;1.50;99.90
13264;DHT22;6700;51.988;7.646;2022-11-20T20:06:26;1.50;99.90
13264;DHT22;6700;51.988;7.646;2022-11-20T20:09:13;1.60;99.90
13264;DHT22;6700;51.988;7.646;2022-11-20T20:11:43;1.50;99.90
13264;DHT22;6700;51.988;7.646;2022-11-20T20:14:13;1.50;99.90
13264;DHT22;6700;51.988;7.646;2022-11-20T20:16:41;1.50;99.90
13264;DHT22;6700;51.988;7.646;2022-11-20T20:19:12;1.50;99.90
13264;DHT22;6700;51.988;7.646;2022-11-20T20:21:39;1.40;99.90
13264;DHT22;6700;51.988;7.646;2022-11-20T20:24:08;1.40;99.90
13264;DHT22;6700;51.988;7.646;2022-11-20T20:26:39;1.30;99.90
13264;DHT22;6700;51.988;7.646;2022-11-20T20:29:05;1.30;99.90
13264;DHT22;6700;51.988;7.646;2022-11-20T20:31:32;1.40;99.90
13264;DHT22;6700;51.988;7.646;2022-11-20T20:34:00;1.30;99.90
13264;DHT22;6700;51.988;7.646;2022-11-20T20:36:27;1.30;99.90
13264;DHT22;6700;51.988;7.646;2022-11-20T20:38:55;1.20;99.90
13264;DHT22;6700;51.988;7.646;2022-11-20T20:41:23;1.30;99.90
13264;DHT22;6700;51.988;7.646;2022-11-20T20:43:51;1.20;99.90
13264;DHT22;6700;51.988;7.646;2022-11-20T20:46:37;1.30;99.90
13264;DHT22;6700;51.988;7.646;2022-11-20T20:49:04;1.30;99.90
13264;DHT22;6700;51.988;7.646;2022-11-20T20:51:30;1.30;99.90
13264;DHT22;6700;51.988;7.646;2022-11-20T20:53:57;1.30;99.90
13264;DHT22;6700;51.988;7.646;2022-11-20T20:56:24;1.30;99.90
13264;DHT22;6700;51.988;7.646;2022-11-20T20:58:51;1.30;99.90
13264;DHT22;6700;51.988;7.646;2022-11-20T21:01:18;1.30;99.90
13264;DHT22;6700;51.988;7.646;2022-11-20T21:03:45;1.30;99.90
13264;DHT22;6700;51.988;7.646;2022-11-20T21:06:12;1.30;99.90
13264;DHT22;6700;51.988;7.646;2022-11-20T21:08:39;1.30;99.90
13264;DHT22;6700;51.988;7.646;2022-11-20T21:11:11;1.30;99.90
13264;DHT22;6700;51.988;7.646;2022-11-20T21:13:39;1.30;99.90
13264;DHT22;6700;51.988;7.646;2022-11-20T21:16:06;1.30;99.90
13264;DHT22;6700;51.988;7.646;2022-11-20T21:18:34;1.30;99.90
13264;DHT22;6700;51.988;7.646;2022-11-20T21:21:07;1.30;99.90
13264;DHT22;6700;51.988;7.646;2022-11-20T21:23:53;1.30;99.90
13264;DHT22;6700;51.988;7.646;2022-11-20T21:26:22;1.30;99.90
13264;DHT22;6700;51.988;7.646;2022-11-20T21:28:48;1.30;99.90
13264;DHT22;6700;51.988;7.646;2022-11-20T21:33:49;1.20;99.90
